createdAt,value
2022-10-28T00:00:27.809Z,10.10
2022-10-28T00:01:30.947Z,10.10
2022-10-28T00:02:33.398Z,10.10
2022-10-28T00:03:39.833Z,10.10
2022-10-28T00:04:42.102Z,10.10
2022-10-28T00:05:45.185Z,10.20
2022-10-28T00:06:47.280Z,10.10
2022-10-28T00:07:50.570Z,10.10
2022-10-28T00:08:53.061Z,10.10
2022-10-28T00:09:56.315Z,10.10
2022-10-28T00:11:06.410Z,10.10
2022-10-28T00:12:09.755Z,10.20
2022-10-28T00:13:11.868Z,10.20
2022-10-28T00:14:16.572Z,10.20
2022-10-28T00:15:18.833Z,10.20
2022-10-28T00:16:23.610Z,10.20
2022-10-28T00:17:25.669Z,10.20
2022-10-28T00:18:30.758Z,10.20
2022-10-28T00:19:32.923Z,10.20
2022-10-28T00:20:36.057Z,10.20
2022-10-28T00:21:39.615Z,10.20
2022-10-28T00:22:42.999Z,10.20
2022-10-28T00:23:45.394Z,10.20
2022-10-28T00:24:48.556Z,10.20
2022-10-28T00:25:50.808Z,10.10
2022-10-28T00:26:54.001Z,10.10
2022-10-28T00:27:56.401Z,10.10
2022-10-28T00:29:01.636Z,10.10
2022-10-28T00:30:06.423Z,10.00
2022-10-28T00:31:11.837Z,10.10
2022-10-28T00:32:14.136Z,10.10
2022-10-28T00:33:17.615Z,10.10
2022-10-28T00:34:21.445Z,10.10
2022-10-28T00:35:24.850Z,10.00
2022-10-28T00:36:28.775Z,10.00
2022-10-28T00:37:32.026Z,10.00
2022-10-28T00:38:34.242Z,10.00
2022-10-28T00:39:37.396Z,10.00
2022-10-28T00:40:39.588Z,10.00
2022-10-28T00:41:44.506Z,10.00
2022-10-28T00:42:46.842Z,10.10
2022-10-28T00:43:54.138Z,10.00
2022-10-28T00:45:27.186Z,10.00
2022-10-28T00:46:41.337Z,10.00
2022-10-28T00:47:59.086Z,10.00
2022-10-28T00:49:28.898Z,9.90
2022-10-28T00:50:53.954Z,9.90
2022-10-28T00:52:08.352Z,9.80
2022-10-28T00:53:22.183Z,9.80
2022-10-28T00:54:32.052Z,9.80
2022-10-28T00:55:49.196Z,9.80
2022-10-28T00:57:08.013Z,9.80
2022-10-28T00:58:30.408Z,9.80
2022-10-28T00:59:36.167Z,9.80
2022-10-28T01:00:39.530Z,9.80
2022-10-28T01:01:43.299Z,9.90
2022-10-28T01:02:48.904Z,9.80
2022-10-28T01:03:51.445Z,9.80
2022-10-28T01:04:54.956Z,9.80
2022-10-28T01:05:58.014Z,9.80
2022-10-28T01:07:07.657Z,9.70
2022-10-28T01:08:16.133Z,9.70
2022-10-28T01:09:23.080Z,9.80
2022-10-28T01:10:37.500Z,9.70
2022-10-28T01:12:08.897Z,9.80
2022-10-28T01:13:28.477Z,9.80
2022-10-28T01:14:48.228Z,9.80
2022-10-28T01:16:21.775Z,9.80
2022-10-28T01:17:48.000Z,9.80
2022-10-28T01:19:11.286Z,9.70
2022-10-28T01:20:48.301Z,9.80
2022-10-28T01:22:04.631Z,9.80
2022-10-28T01:23:14.938Z,9.80
2022-10-28T01:24:34.343Z,9.80
2022-10-28T01:26:11.402Z,9.80
2022-10-28T01:27:44.124Z,9.70
2022-10-28T01:29:08.987Z,9.70
2022-10-28T01:30:16.731Z,9.70
2022-10-28T01:31:28.291Z,9.70
2022-10-28T01:32:36.245Z,9.70
2022-10-28T01:33:46.821Z,9.70
2022-10-28T01:34:59.735Z,9.70
2022-10-28T01:36:08.323Z,9.70
2022-10-28T01:37:18.369Z,9.70
2022-10-28T01:38:32.261Z,9.70
2022-10-28T01:39:42.015Z,9.70
2022-10-28T01:40:49.302Z,9.80
2022-10-28T01:41:59.110Z,9.80
2022-10-28T01:43:11.568Z,9.80
2022-10-28T01:44:20.806Z,9.80
2022-10-28T01:45:28.075Z,9.70
2022-10-28T01:46:39.390Z,9.70
2022-10-28T01:47:48.562Z,9.70
2022-10-28T01:48:56.916Z,9.70
2022-10-28T01:50:05.238Z,9.70
2022-10-28T01:51:13.135Z,9.80
2022-10-28T01:52:21.172Z,9.80
2022-10-28T01:53:27.679Z,9.80
2022-10-28T01:54:35.100Z,9.80
2022-10-28T01:55:40.266Z,9.80
2022-10-28T01:56:47.635Z,9.80
2022-10-28T01:57:52.876Z,9.80
2022-10-28T01:58:58.965Z,9.80
2022-10-28T02:00:04.343Z,9.80
2022-10-28T02:01:15.802Z,9.80
2022-10-28T02:02:19.559Z,9.80
2022-10-28T02:03:23.426Z,9.80
2022-10-28T02:04:25.647Z,9.80
2022-10-28T02:05:48.178Z,9.80
2022-10-28T02:06:54.657Z,9.80
2022-10-28T02:08:15.499Z,9.80
2022-10-28T02:09:35.863Z,9.80
2022-10-28T02:10:51.098Z,9.80
2022-10-28T02:12:18.281Z,9.80
2022-10-28T02:13:28.329Z,9.80
2022-10-28T02:16:32.362Z,9.80
2022-10-28T02:17:57.615Z,9.80
2022-10-28T02:19:12.678Z,9.70
2022-10-28T02:20:26.121Z,9.70
2022-10-28T02:21:46.524Z,9.70
2022-10-28T02:22:58.213Z,9.70
2022-10-28T02:24:10.140Z,9.70
2022-10-28T02:25:20.417Z,9.70
2022-10-28T02:26:36.386Z,9.70
2022-10-28T02:27:47.447Z,9.70
2022-10-28T02:29:00.764Z,9.70
2022-10-28T02:30:09.562Z,9.70
2022-10-28T02:31:27.606Z,9.70
2022-10-28T02:32:38.997Z,9.70
2022-10-28T02:33:48.739Z,9.70
2022-10-28T02:34:58.752Z,9.70
2022-10-28T02:36:10.418Z,9.70
2022-10-28T02:37:22.701Z,9.70
2022-10-28T02:39:55.870Z,9.70
2022-10-28T02:41:09.476Z,9.70
2022-10-28T02:42:20.254Z,9.70
2022-10-28T02:43:30.684Z,9.70
2022-10-28T02:44:45.354Z,9.60
2022-10-28T02:45:55.973Z,9.70
2022-10-28T02:47:12.348Z,9.60
2022-10-28T02:48:26.126Z,9.60
2022-10-28T02:49:37.930Z,9.60
2022-10-28T02:50:54.349Z,9.50
2022-10-28T02:52:03.618Z,9.50
2022-10-28T02:53:15.479Z,9.50
2022-10-28T02:54:21.562Z,9.40
2022-10-28T02:55:36.244Z,9.40
2022-10-28T02:56:43.908Z,9.40
2022-10-28T02:57:51.226Z,9.40
2022-10-28T02:58:55.549Z,9.40
2022-10-28T03:00:06.070Z,9.40
2022-10-28T03:01:18.462Z,9.40
2022-10-28T03:02:25.794Z,9.40
2022-10-28T03:03:32.210Z,9.40
2022-10-28T03:04:45.071Z,9.40
2022-10-28T03:05:52.110Z,9.40
2022-10-28T03:06:56.701Z,9.40
2022-10-28T03:08:15.188Z,9.40
2022-10-28T03:09:18.136Z,9.30
2022-10-28T03:10:22.784Z,9.30
2022-10-28T03:11:27.069Z,9.40
2022-10-28T03:12:34.354Z,9.40
2022-10-28T03:13:40.138Z,9.40
2022-10-28T03:14:56.588Z,9.40
2022-10-28T03:16:05.814Z,9.40
2022-10-28T03:17:12.786Z,9.40
2022-10-28T03:18:19.539Z,9.40
2022-10-28T03:19:30.097Z,9.40
2022-10-28T03:20:38.012Z,9.30
2022-10-28T03:21:50.062Z,9.30
2022-10-28T03:22:53.117Z,9.30
2022-10-28T03:24:08.263Z,9.30
2022-10-28T03:25:18.851Z,9.30
2022-10-28T03:26:25.848Z,9.40
2022-10-28T03:27:31.618Z,9.30
2022-10-28T03:28:38.801Z,9.30
2022-10-28T03:29:52.960Z,9.40
2022-10-28T03:30:57.439Z,9.40
2022-10-28T03:32:03.091Z,9.40
2022-10-28T03:33:10.143Z,9.40
2022-10-28T03:34:17.780Z,9.40
2022-10-28T03:35:21.644Z,9.30
2022-10-28T03:36:26.970Z,9.30
2022-10-28T03:37:29.141Z,9.30
2022-10-28T03:39:10.696Z,9.40
2022-10-28T03:40:19.574Z,9.30
2022-10-28T03:41:27.631Z,9.30
2022-10-28T03:42:31.022Z,9.30
2022-10-28T03:43:33.295Z,9.30
2022-10-28T03:44:38.804Z,9.30
2022-10-28T03:45:41.140Z,9.30
2022-10-28T03:46:46.434Z,9.30
2022-10-28T03:47:48.737Z,9.30
2022-10-28T03:48:52.113Z,9.30
2022-10-28T03:49:54.370Z,9.30
2022-10-28T03:50:57.474Z,9.30
2022-10-28T03:52:05.970Z,9.30
2022-10-28T03:53:09.493Z,9.30
2022-10-28T03:54:14.472Z,9.30
2022-10-28T03:55:18.776Z,9.30
2022-10-28T03:56:26.716Z,9.30
2022-10-28T03:57:32.060Z,9.30
2022-10-28T03:58:37.446Z,9.30
2022-10-28T03:59:43.336Z,9.30
2022-10-28T04:00:45.550Z,9.30
2022-10-28T04:01:54.432Z,9.30
2022-10-28T04:05:07.131Z,9.30
2022-10-28T04:06:11.935Z,9.30
2022-10-28T04:07:24.649Z,9.20
2022-10-28T04:08:32.236Z,9.20
2022-10-28T04:09:38.217Z,9.20
2022-10-28T04:10:47.789Z,9.20
2022-10-28T04:12:00.349Z,9.20
2022-10-28T04:13:04.181Z,9.20
2022-10-28T04:14:13.434Z,9.20
2022-10-28T04:15:20.761Z,9.20
2022-10-28T04:16:26.222Z,9.20
2022-10-28T04:17:36.462Z,9.20
2022-10-28T04:18:39.774Z,9.20
2022-10-28T04:19:42.062Z,9.20
2022-10-28T04:20:47.023Z,9.20
2022-10-28T04:21:49.420Z,9.20
2022-10-28T04:22:57.749Z,9.20
2022-10-28T04:24:00.263Z,9.20
2022-10-28T04:25:03.393Z,9.20
2022-10-28T04:26:08.881Z,9.20
2022-10-28T04:27:16.969Z,9.20
2022-10-28T04:28:19.615Z,9.30
2022-10-28T04:29:25.662Z,9.30
2022-10-28T04:30:43.852Z,9.20
2022-10-28T04:31:49.962Z,9.30
2022-10-28T04:32:59.032Z,9.20
2022-10-28T04:34:02.350Z,9.20
2022-10-28T04:35:05.015Z,9.30
2022-10-28T04:36:08.782Z,9.20
2022-10-28T04:37:10.868Z,9.20
2022-10-28T04:38:15.544Z,9.20
2022-10-28T04:39:17.831Z,9.20
2022-10-28T04:41:43.003Z,9.30
2022-10-28T04:42:54.570Z,9.30
2022-10-28T04:44:10.174Z,9.30
2022-10-28T04:45:16.848Z,9.30
2022-10-28T04:46:20.331Z,9.20
2022-10-28T04:47:22.716Z,9.20
2022-10-28T04:48:25.772Z,9.20
2022-10-28T04:49:27.793Z,9.10
2022-10-28T04:52:30.680Z,9.10
2022-10-28T04:53:34.570Z,9.10
2022-10-28T04:54:37.872Z,9.10
2022-10-28T04:55:39.940Z,9.10
2022-10-28T04:56:43.098Z,9.10
2022-10-28T04:57:45.150Z,9.10
2022-10-28T04:58:48.507Z,9.10
2022-10-28T04:59:50.628Z,9.10
2022-10-28T05:00:54.033Z,9.10
2022-10-28T05:01:56.139Z,9.10
2022-10-28T05:03:02.738Z,9.10
2022-10-28T05:04:05.058Z,9.10
2022-10-28T05:05:08.815Z,9.00
2022-10-28T05:06:10.849Z,9.00
2022-10-28T05:07:18.670Z,9.10
2022-10-28T05:08:23.430Z,9.10
2022-10-28T05:09:27.868Z,9.10
2022-10-28T05:10:30.710Z,9.10
2022-10-28T05:11:33.878Z,9.10
2022-10-28T05:12:35.906Z,9.10
2022-10-28T05:13:38.910Z,9.10
2022-10-28T05:14:40.970Z,9.10
2022-10-28T05:15:44.296Z,9.10
2022-10-28T05:16:47.321Z,9.10
2022-10-28T05:17:49.906Z,9.00
2022-10-28T05:18:52.947Z,9.10
2022-10-28T05:19:54.997Z,9.00
2022-10-28T05:20:58.030Z,9.00
2022-10-28T05:22:00.059Z,9.10
2022-10-28T05:23:03.215Z,9.10
2022-10-28T05:24:06.016Z,9.10
2022-10-28T05:25:10.846Z,9.10
2022-10-28T05:26:12.986Z,9.10
2022-10-28T05:27:17.116Z,9.10
2022-10-28T05:28:19.460Z,9.10
2022-10-28T05:29:22.659Z,9.10
2022-10-28T05:30:36.963Z,9.10
2022-10-28T05:31:40.594Z,9.10
2022-10-28T05:32:42.799Z,9.00
2022-10-28T05:33:45.897Z,9.00
2022-10-28T05:34:47.972Z,9.00
2022-10-28T05:35:51.081Z,9.00
2022-10-28T05:36:53.133Z,9.00
2022-10-28T05:37:56.353Z,9.00
2022-10-28T05:38:58.473Z,9.00
2022-10-28T05:40:01.701Z,9.00
2022-10-28T05:41:05.627Z,9.00
2022-10-28T05:42:11.835Z,9.00
2022-10-28T05:43:13.883Z,9.00
2022-10-28T05:44:19.899Z,9.00
2022-10-28T05:45:26.889Z,9.00
2022-10-28T05:47:56.404Z,9.00
2022-10-28T05:49:00.687Z,9.00
2022-10-28T05:51:25.159Z,9.10
2022-10-28T05:52:38.811Z,9.10
2022-10-28T05:53:54.780Z,9.10
2022-10-28T05:54:57.591Z,9.20
2022-10-28T05:56:00.864Z,9.20
2022-10-28T05:57:04.355Z,9.20
2022-10-28T05:58:07.513Z,9.30
2022-10-28T05:59:15.418Z,9.30
2022-10-28T06:00:20.337Z,9.30
2022-10-28T06:01:24.979Z,9.40
2022-10-28T06:02:37.449Z,9.40
2022-10-28T06:03:45.340Z,9.50
2022-10-28T06:04:49.869Z,9.50
2022-10-28T06:05:55.376Z,9.60
2022-10-28T06:07:07.344Z,9.60
2022-10-28T06:08:23.001Z,9.70
2022-10-28T06:09:35.657Z,9.70
2022-10-28T06:10:53.370Z,9.80
2022-10-28T06:11:57.748Z,9.90
2022-10-28T06:13:23.278Z,10.00
2022-10-28T06:14:42.801Z,10.00
2022-10-28T06:15:54.323Z,10.10
2022-10-28T06:17:06.827Z,10.20
2022-10-28T06:18:18.172Z,10.20
2022-10-28T06:19:34.064Z,10.40
2022-10-28T06:20:57.641Z,10.40
2022-10-28T06:22:07.916Z,10.50
2022-10-28T06:23:14.663Z,10.60
2022-10-28T06:24:16.726Z,10.70
2022-10-28T06:25:36.180Z,10.80
2022-10-28T06:26:39.433Z,10.80
2022-10-28T06:27:54.721Z,11.00
2022-10-28T06:29:02.016Z,11.00
2022-10-28T06:30:05.861Z,11.10
2022-10-28T06:31:13.910Z,11.20
2022-10-28T06:32:19.306Z,11.30
2022-10-28T06:33:27.286Z,11.50
2022-10-28T06:34:44.550Z,11.70
2022-10-28T06:36:13.677Z,11.90
2022-10-28T06:37:24.965Z,12.10
2022-10-28T06:38:40.083Z,12.30
2022-10-28T06:39:55.993Z,12.40
2022-10-28T06:40:58.403Z,12.70
2022-10-28T06:42:18.139Z,13.00
2022-10-28T06:43:24.452Z,13.20
2022-10-28T06:44:43.158Z,13.50
2022-10-28T06:46:03.298Z,13.60
2022-10-28T06:47:36.568Z,13.80
2022-10-28T06:49:14.724Z,13.90
2022-10-28T06:50:38.429Z,14.20
2022-10-28T06:52:15.604Z,14.30
2022-10-28T06:53:31.336Z,14.50
2022-10-28T06:55:18.793Z,14.70
2022-10-28T06:56:29.313Z,14.70
2022-10-28T06:57:40.653Z,14.60
2022-10-28T06:58:44.116Z,14.60
2022-10-28T07:00:00.985Z,14.50
2022-10-28T07:01:09.918Z,14.30
2022-10-28T07:02:34.982Z,14.20
2022-10-28T07:04:12.593Z,14.20
2022-10-28T07:05:45.213Z,14.20
2022-10-28T07:06:49.812Z,14.20
2022-10-28T07:08:17.085Z,14.20
2022-10-28T07:09:56.462Z,14.30
2022-10-28T07:11:28.386Z,14.80
2022-10-28T07:14:18.382Z,15.90
2022-10-28T07:16:17.817Z,16.20
2022-10-28T07:18:04.938Z,16.60
2022-10-28T07:19:22.487Z,16.90
2022-10-28T07:20:28.223Z,16.80
2022-10-28T07:21:31.248Z,16.50
2022-10-28T07:22:34.497Z,16.40
2022-10-28T07:23:37.540Z,16.40
2022-10-28T07:24:39.556Z,16.60
2022-10-28T07:25:43.350Z,16.90
2022-10-28T07:26:57.028Z,17.00
2022-10-28T07:28:07.913Z,17.10
2022-10-28T07:29:11.567Z,17.10
2022-10-28T07:30:28.223Z,17.20
2022-10-28T07:31:57.926Z,17.20
2022-10-28T07:33:18.684Z,17.20
2022-10-28T07:34:26.758Z,17.00
2022-10-28T07:35:59.581Z,16.90
2022-10-28T07:37:23.857Z,16.80
2022-10-28T07:38:35.891Z,16.80
2022-10-28T07:40:00.403Z,16.70
2022-10-28T07:41:18.033Z,16.70
2022-10-28T07:42:39.973Z,16.70
2022-10-28T07:43:43.337Z,16.70
2022-10-28T07:44:50.660Z,16.60
2022-10-28T07:45:57.580Z,16.50
2022-10-28T07:47:02.717Z,16.50
2022-10-28T07:48:20.941Z,16.50
2022-10-28T07:49:54.419Z,16.50
2022-10-28T07:51:17.952Z,16.60
2022-10-28T07:52:50.300Z,16.70
2022-10-28T07:54:00.688Z,16.70
2022-10-28T07:55:34.808Z,16.70
2022-10-28T07:56:38.540Z,16.70
2022-10-28T08:01:40.826Z,16.60
2022-10-28T08:03:10.128Z,16.80
2022-10-28T08:04:18.597Z,16.90
2022-10-28T08:05:49.131Z,16.90
2022-10-28T08:06:58.197Z,16.90
2022-10-28T08:08:01.342Z,16.60
2022-10-28T08:09:03.892Z,16.40
2022-10-28T08:10:08.033Z,16.50
2022-10-28T08:11:18.922Z,16.50
2022-10-28T08:12:21.180Z,16.70
2022-10-28T08:13:24.526Z,16.80
2022-10-28T08:14:27.691Z,16.80
2022-10-28T08:15:31.172Z,16.90
2022-10-28T08:16:33.399Z,16.90
2022-10-28T08:17:57.634Z,16.90
2022-10-28T08:19:43.352Z,17.10
2022-10-28T08:21:12.506Z,17.40
2022-10-28T08:22:21.416Z,17.50
2022-10-28T08:23:38.245Z,17.60
2022-10-28T08:24:41.425Z,17.60
2022-10-28T08:26:12.668Z,17.60
2022-10-28T08:27:42.402Z,17.80
2022-10-28T08:28:44.481Z,18.10
2022-10-28T08:29:47.968Z,18.30
2022-10-28T08:31:04.090Z,18.30
2022-10-28T08:32:33.345Z,18.50
2022-10-28T08:33:42.220Z,18.70
2022-10-28T08:45:44.174Z,19.30
2022-10-28T08:47:34.433Z,19.30
2022-10-28T08:48:40.978Z,19.10
2022-10-28T08:50:49.627Z,19.10
2022-10-28T09:00:03.830Z,19.30
2022-10-28T09:04:50.405Z,18.90
2022-10-28T09:07:03.077Z,18.80
2022-10-28T09:09:25.217Z,19.00
2022-10-28T09:11:32.252Z,19.00
2022-10-28T09:15:50.126Z,19.00
2022-10-28T09:19:00.650Z,19.00
2022-10-28T09:21:32.404Z,19.30
2022-10-28T09:22:45.198Z,19.40
2022-10-28T09:23:55.393Z,19.50
2022-10-28T09:25:01.977Z,19.60
2022-10-28T09:26:21.632Z,19.60
2022-10-28T09:27:42.167Z,19.50
2022-10-28T09:29:56.978Z,19.50
2022-10-28T09:34:07.796Z,19.50
2022-10-28T09:35:57.524Z,19.50
2022-10-28T09:37:30.826Z,19.50
2022-10-28T09:39:13.165Z,19.50
2022-10-28T09:41:10.117Z,19.40
2022-10-28T09:43:09.253Z,19.40
2022-10-28T09:44:37.671Z,19.40
2022-10-28T09:46:37.142Z,19.40
2022-10-28T10:30:25.395Z,21.40
2022-10-28T10:32:56.024Z,21.60
2022-10-28T10:34:02.704Z,21.70
2022-10-28T10:35:26.762Z,21.70
2022-10-28T10:36:35.257Z,21.60
2022-10-28T10:37:58.117Z,21.60
2022-10-28T10:40:07.352Z,21.70
2022-10-28T10:41:56.591Z,21.70
2022-10-28T10:43:42.058Z,21.70
2022-10-28T10:45:00.521Z,21.60
2022-10-28T10:48:18.951Z,21.70
2022-10-28T10:49:25.563Z,21.80
2022-10-28T10:51:41.381Z,21.90
2022-10-28T10:53:40.142Z,22.00
2022-10-28T10:54:50.277Z,22.00
2022-10-28T10:56:13.034Z,22.00
2022-10-28T10:57:19.322Z,22.00
2022-10-28T10:58:39.665Z,22.00
2022-10-28T11:00:04.435Z,22.00
2022-10-28T11:01:21.089Z,22.10
2022-10-28T11:02:29.128Z,22.20
2022-10-28T11:03:41.737Z,22.20
2022-10-28T11:32:44.066Z,22.30
2022-10-28T11:34:37.269Z,22.40
2022-10-28T11:56:33.174Z,23.50
2022-10-28T11:58:00.782Z,23.50
2022-10-28T12:02:55.505Z,23.80
2022-10-28T12:12:32.614Z,23.90
2022-10-28T12:13:52.241Z,23.90
2022-10-28T12:15:34.292Z,23.90
2022-10-28T19:26:42.444Z,16.30
2022-10-28T19:27:47.733Z,16.30
2022-10-28T19:28:51.706Z,16.30
2022-10-28T19:30:10.688Z,16.30
2022-10-28T19:31:30.342Z,16.30
2022-10-28T19:32:35.320Z,16.30
2022-10-28T19:33:40.166Z,16.30
2022-10-28T19:35:01.031Z,16.30
2022-10-28T19:36:25.169Z,16.20
2022-10-28T19:37:52.941Z,16.20
2022-10-28T19:39:16.667Z,16.20
2022-10-28T19:40:40.397Z,16.10
2022-10-28T19:42:05.591Z,16.10
2022-10-28T19:43:28.303Z,16.10
2022-10-28T19:44:52.334Z,16.10
2022-10-28T19:46:18.000Z,16.00
2022-10-28T19:54:17.461Z,15.80
2022-10-28T19:55:40.153Z,15.90
2022-10-28T19:57:35.206Z,15.90
2022-10-28T19:59:04.423Z,15.90
2022-10-28T20:00:28.497Z,15.80
2022-10-28T20:01:52.133Z,15.70
2022-10-28T20:03:14.842Z,15.70
2022-10-28T20:04:48.203Z,15.80
2022-10-28T20:07:10.777Z,15.80
2022-10-28T20:08:38.864Z,15.80
2022-10-28T20:10:40.233Z,15.90
2022-10-28T20:12:04.018Z,15.80
2022-10-28T20:13:28.713Z,15.80
2022-10-28T20:15:42.559Z,15.70
2022-10-28T20:18:08.462Z,15.60
2022-10-28T20:19:59.111Z,15.50
2022-10-28T20:21:23.776Z,15.60
2022-10-28T20:22:47.539Z,15.60
2022-10-28T20:24:12.550Z,15.60
2022-10-28T20:25:35.097Z,15.70
2022-10-28T20:27:23.829Z,15.60
2022-10-28T20:29:32.177Z,15.70
2022-10-28T20:31:02.197Z,15.70
2022-10-28T20:32:25.826Z,15.70
2022-10-28T20:34:25.752Z,15.70
2022-10-28T20:40:42.005Z,15.70
2022-10-28T21:00:44.842Z,15.50
2022-10-28T21:02:12.009Z,15.50
2022-10-28T21:04:07.301Z,15.50
2022-10-28T21:09:17.562Z,15.50
2022-10-28T21:10:42.312Z,15.40
2022-10-28T21:19:05.531Z,15.50
2022-10-28T21:20:39.831Z,15.50
2022-10-28T21:21:42.438Z,15.40
2022-10-28T21:25:32.716Z,15.40
2022-10-28T21:26:39.083Z,15.40
2022-10-28T21:27:41.817Z,15.50
2022-10-28T21:32:27.444Z,15.40
2022-10-28T21:33:45.160Z,15.40
2022-10-28T21:34:58.839Z,15.40
2022-10-28T21:36:16.256Z,15.40
2022-10-28T21:37:26.001Z,15.40
2022-10-28T21:38:31.472Z,15.40
2022-10-28T21:39:40.307Z,15.40
2022-10-28T21:41:09.763Z,15.40
2022-10-28T21:42:32.107Z,15.40
2022-10-28T21:44:13.827Z,15.30
2022-10-28T21:46:10.696Z,15.30
2022-10-28T21:47:17.999Z,15.40
2022-10-28T21:48:21.470Z,15.40
2022-10-28T21:49:26.523Z,15.40
2022-10-28T21:50:32.490Z,15.40
2022-10-28T21:51:34.729Z,15.40
2022-10-28T21:52:38.011Z,15.40
2022-10-28T21:53:40.686Z,15.30
2022-10-28T21:54:44.068Z,15.30
2022-10-28T21:55:47.321Z,15.40
2022-10-28T21:56:51.917Z,15.40
2022-10-28T21:57:54.605Z,15.30
2022-10-28T21:58:58.037Z,15.30
2022-10-28T22:00:06.534Z,15.30
2022-10-28T22:01:18.750Z,15.40
2022-10-28T22:02:23.136Z,15.40
2022-10-28T22:03:26.408Z,15.40
2022-10-28T22:04:29.580Z,15.40
2022-10-28T22:05:31.854Z,15.40
2022-10-28T22:06:35.172Z,15.40
2022-10-28T22:07:37.332Z,15.40
2022-10-28T22:08:40.650Z,15.40
2022-10-28T22:09:45.849Z,15.40
2022-10-28T22:10:51.211Z,15.40
2022-10-28T22:11:53.386Z,15.40
2022-10-28T22:12:57.172Z,15.40
2022-10-28T22:14:02.179Z,15.50
2022-10-28T22:15:07.675Z,15.50
2022-10-28T22:16:13.985Z,15.50
2022-10-28T22:17:16.380Z,15.50
2022-10-28T22:18:21.320Z,15.50
2022-10-28T22:19:30.953Z,15.50
2022-10-28T22:21:00.987Z,15.50
2022-10-28T22:22:17.057Z,15.50
2022-10-28T22:23:32.703Z,15.50
2022-10-28T22:24:40.622Z,15.40
2022-10-28T22:25:57.612Z,15.40
2022-10-28T22:27:28.529Z,15.40
2022-10-28T22:28:33.837Z,15.50
2022-10-28T22:29:37.166Z,15.50
2022-10-28T22:30:39.619Z,15.50
2022-10-28T22:31:43.294Z,15.50
2022-10-28T22:32:45.880Z,15.50
2022-10-28T22:33:51.272Z,15.40
2022-10-28T22:34:56.321Z,15.40
2022-10-28T22:36:00.605Z,15.40
2022-10-28T22:37:02.949Z,15.40
2022-10-28T22:38:17.669Z,15.40
2022-10-28T22:39:20.180Z,15.40
2022-10-28T22:40:23.715Z,15.40
2022-10-28T22:41:28.514Z,15.40
2022-10-28T22:43:10.478Z,15.30
2022-10-28T22:44:55.466Z,15.30
2022-10-28T22:46:01.072Z,15.30
2022-10-28T22:47:04.575Z,15.20
2022-10-28T22:48:06.987Z,15.20
2022-10-28T22:49:12.106Z,15.20
2022-10-28T22:50:18.183Z,15.20
2022-10-28T22:51:27.840Z,15.20
2022-10-28T22:52:35.660Z,15.20
2022-10-28T22:53:43.065Z,15.20
2022-10-28T22:54:45.838Z,15.20
2022-10-28T22:55:54.626Z,15.20
2022-10-28T22:56:58.544Z,15.10
2022-10-28T22:58:01.194Z,15.10
2022-10-28T22:59:06.704Z,15.10
2022-10-28T23:00:10.435Z,15.10
2022-10-28T23:01:15.788Z,15.10
2022-10-28T23:02:18.156Z,15.10
2022-10-28T23:03:21.506Z,15.10
2022-10-28T23:04:25.353Z,15.10
2022-10-28T23:05:29.057Z,15.00
2022-10-28T23:06:31.620Z,15.00
2022-10-28T23:07:35.231Z,15.00
2022-10-28T23:08:38.195Z,14.90
2022-10-28T23:09:41.441Z,14.90
2022-10-28T23:10:43.697Z,14.80
2022-10-28T23:11:46.917Z,14.90
2022-10-28T23:12:55.570Z,14.80
2022-10-28T23:13:59.085Z,14.80
2022-10-28T23:15:01.319Z,14.80
2022-10-28T23:16:05.956Z,14.70
2022-10-28T23:17:08.932Z,14.70
2022-10-28T23:18:12.277Z,14.70
2022-10-28T23:19:14.391Z,14.60
2022-10-28T23:20:19.581Z,14.60
2022-10-28T23:21:24.670Z,14.60
2022-10-28T23:22:29.192Z,14.50
2022-10-28T23:23:32.687Z,14.50
2022-10-28T23:24:37.983Z,14.50
2022-10-28T23:25:41.653Z,14.50
2022-10-28T23:26:48.286Z,14.40
2022-10-28T23:27:50.795Z,14.40
2022-10-28T23:29:00.161Z,14.40
2022-10-28T23:30:02.534Z,14.40
2022-10-28T23:31:08.100Z,14.40
2022-10-28T23:32:12.111Z,14.30
2022-10-28T23:33:14.655Z,14.30
2022-10-28T23:34:20.252Z,14.30
2022-10-28T23:35:26.043Z,14.30
2022-10-28T23:36:29.566Z,14.20
2022-10-28T23:37:32.718Z,14.20
2022-10-28T23:38:38.844Z,14.20
2022-10-28T23:39:43.408Z,14.20
2022-10-28T23:40:56.556Z,14.10
2022-10-28T23:41:58.892Z,14.00
2022-10-28T23:43:04.525Z,14.00
2022-10-28T23:44:07.031Z,14.00
2022-10-28T23:45:14.352Z,14.00
2022-10-28T23:46:16.905Z,14.00
2022-10-28T23:47:20.663Z,13.90
2022-10-28T23:48:26.401Z,13.90
2022-10-28T23:49:32.965Z,13.90
2022-10-28T23:50:39.794Z,13.90
2022-10-28T23:51:43.163Z,13.90
2022-10-28T23:52:47.940Z,13.90
2022-10-28T23:53:51.547Z,13.80
2022-10-28T23:54:53.784Z,13.70
2022-10-28T23:55:57.691Z,13.70
2022-10-28T23:57:01.676Z,13.60
2022-10-28T23:58:05.208Z,13.50
2022-10-28T23:59:07.420Z,13.50
